createdAt,value
2022-12-28T00:01:29.476Z,3.60
2022-12-28T00:03:59.263Z,3.00
2022-12-28T00:06:26.943Z,2.92
2022-12-28T00:08:55.938Z,2.63
2022-12-28T00:11:28.072Z,2.47
2022-12-28T00:14:00.715Z,2.33
2022-12-28T00:16:40.289Z,2.70
2022-12-28T00:19:14.973Z,2.70
2022-12-28T00:21:43.221Z,2.20
2022-12-28T00:24:21.261Z,2.03
2022-12-28T00:26:48.476Z,2.60
2022-12-28T00:29:15.577Z,2.35
2022-12-28T00:31:42.776Z,2.20
2022-12-28T00:34:10.036Z,2.30
2022-12-28T00:37:09.695Z,2.35
2022-12-28T00:39:24.000Z,2.00
2022-12-28T00:41:50.733Z,2.22
2022-12-28T00:44:17.458Z,2.30
2022-12-28T00:46:44.277Z,1.63
2022-12-28T00:49:10.989Z,2.03
2022-12-28T00:51:37.800Z,2.05
2022-12-28T00:54:04.819Z,2.17
2022-12-28T00:56:31.557Z,2.13
2022-12-28T00:58:59.726Z,2.05
2022-12-28T01:01:28.103Z,2.00
2022-12-28T01:03:59.191Z,2.00
2022-12-28T01:06:27.932Z,1.80
2022-12-28T01:08:55.341Z,1.83
2022-12-28T01:11:29.095Z,1.83
2022-12-28T01:13:59.644Z,1.92
2022-12-28T01:16:34.531Z,1.92
2022-12-28T01:19:05.206Z,2.10
2022-12-28T01:21:34.090Z,2.22
2022-12-28T01:24:04.785Z,1.50
2022-12-28T01:26:31.716Z,1.83
2022-12-28T01:28:58.977Z,1.90
2022-12-28T01:31:26.790Z,1.90
2022-12-28T01:33:54.072Z,2.00
2022-12-28T01:36:25.448Z,1.58
2022-12-28T01:38:55.919Z,1.70
2022-12-28T01:41:24.802Z,1.95
2022-12-28T01:43:54.460Z,1.80
2022-12-28T01:46:35.556Z,2.00
2022-12-28T01:49:10.865Z,1.88
2022-12-28T01:51:54.363Z,2.00
2022-12-28T01:54:24.612Z,1.98
2022-12-28T01:56:52.172Z,2.08
2022-12-28T01:59:22.669Z,1.90
2022-12-28T02:01:49.506Z,1.70
2022-12-28T02:04:16.851Z,2.17
2022-12-28T02:06:44.207Z,1.77
2022-12-28T02:09:20.047Z,2.28
2022-12-28T02:11:48.689Z,1.83
2022-12-28T02:14:16.582Z,2.00
2022-12-28T02:16:43.648Z,1.73
2022-12-28T02:19:18.783Z,2.03
2022-12-28T02:22:16.476Z,1.98
2022-12-28T02:25:17.496Z,1.85
2022-12-28T02:28:19.317Z,1.95
2022-12-28T02:31:07.288Z,1.90
2022-12-28T02:33:49.079Z,1.90
2022-12-28T02:36:24.636Z,1.80
2022-12-28T02:39:11.069Z,2.00
2022-12-28T02:41:42.518Z,1.77
2022-12-28T02:44:09.840Z,2.33
2022-12-28T02:46:56.753Z,2.28
2022-12-28T02:49:44.120Z,2.13
2022-12-28T02:52:59.238Z,2.10
2022-12-28T02:56:07.506Z,1.85
2022-12-28T02:59:12.384Z,2.20
2022-12-28T03:05:10.507Z,2.03
2022-12-28T03:08:20.220Z,1.50
2022-12-28T03:11:07.275Z,2.00
2022-12-28T03:14:01.542Z,2.00
2022-12-28T03:16:54.733Z,1.92
2022-12-28T03:19:48.378Z,2.00
2022-12-28T03:22:34.772Z,2.13
2022-12-28T03:25:29.381Z,2.60
2022-12-28T03:31:03.648Z,1.70
2022-12-28T03:33:30.481Z,2.00
2022-12-28T03:36:19.790Z,1.70
2022-12-28T03:39:17.663Z,1.80
2022-12-28T03:42:15.070Z,2.00
2022-12-28T03:44:54.764Z,2.00
2022-12-28T03:47:25.008Z,1.85
2022-12-28T03:49:52.103Z,2.17
2022-12-28T03:52:19.552Z,2.05
2022-12-28T03:54:46.871Z,2.08
2022-12-28T03:57:13.576Z,1.83
2022-12-28T03:59:40.290Z,1.77
2022-12-28T04:02:07.140Z,1.90
2022-12-28T04:04:33.944Z,1.90
2022-12-28T04:07:00.664Z,2.13
2022-12-28T04:09:27.426Z,1.95
2022-12-28T04:11:54.165Z,1.60
2022-12-28T04:14:21.662Z,1.73
2022-12-28T04:16:48.422Z,1.92
2022-12-28T04:19:15.570Z,1.70
2022-12-28T04:21:42.301Z,1.60
2022-12-28T04:24:09.063Z,1.88
2022-12-28T04:26:35.825Z,1.90
2022-12-28T04:29:02.662Z,1.85
2022-12-28T04:31:30.498Z,1.50
2022-12-28T04:33:59.164Z,1.77
2022-12-28T04:36:26.430Z,1.55
2022-12-28T04:38:53.148Z,1.92
2022-12-28T04:41:20.103Z,1.80
2022-12-28T04:43:46.865Z,1.80
2022-12-28T04:46:15.672Z,2.05
2022-12-28T04:48:42.990Z,1.60
2022-12-28T04:51:15.474Z,2.10
2022-12-28T04:53:42.526Z,1.60
2022-12-28T04:56:11.857Z,1.75
2022-12-28T04:58:40.245Z,1.73
2022-12-28T05:01:17.595Z,1.50
2022-12-28T05:03:54.735Z,1.50
2022-12-28T05:06:24.119Z,1.52
2022-12-28T05:08:51.506Z,1.40
2022-12-28T05:11:22.474Z,1.55
2022-12-28T05:13:50.112Z,1.33
2022-12-28T05:16:20.400Z,1.52
2022-12-28T05:18:47.267Z,1.50
2022-12-28T05:21:21.634Z,1.45
2022-12-28T05:23:49.731Z,1.50
2022-12-28T05:26:20.134Z,1.52
2022-12-28T05:28:47.584Z,1.45
2022-12-28T05:31:19.065Z,1.48
2022-12-28T05:33:47.422Z,1.65
2022-12-28T05:36:20.827Z,1.67
2022-12-28T05:38:48.129Z,1.52
2022-12-28T05:41:25.036Z,1.50
2022-12-28T05:43:52.724Z,1.40
2022-12-28T05:46:24.683Z,1.52
2022-12-28T05:48:52.555Z,1.52
2022-12-28T05:51:23.025Z,1.38
2022-12-28T05:53:50.396Z,1.13
2022-12-28T05:56:21.136Z,1.50
2022-12-28T05:59:00.903Z,1.13
2022-12-28T06:01:31.841Z,1.33
2022-12-28T06:04:11.840Z,1.20
2022-12-28T06:06:38.959Z,1.42
2022-12-28T06:09:05.755Z,1.15
2022-12-28T06:11:32.807Z,1.55
2022-12-28T06:14:00.440Z,1.30
2022-12-28T06:16:36.685Z,1.52
2022-12-28T06:19:09.815Z,1.30
2022-12-28T06:21:39.484Z,1.40
2022-12-28T06:24:08.358Z,1.30
2022-12-28T06:26:38.289Z,1.30
2022-12-28T06:29:05.503Z,1.20
2022-12-28T06:31:36.190Z,1.35
2022-12-28T06:34:05.274Z,1.40
2022-12-28T06:36:39.521Z,1.48
2022-12-28T06:39:09.591Z,1.40
2022-12-28T06:41:37.299Z,1.50
2022-12-28T06:44:08.909Z,1.30
2022-12-28T06:46:36.354Z,1.38
2022-12-28T06:49:03.229Z,1.63
2022-12-28T06:51:38.767Z,1.40
2022-12-28T06:54:06.530Z,1.20
2022-12-28T06:56:35.872Z,1.42
2022-12-28T06:59:04.626Z,1.27
2022-12-28T07:01:39.005Z,1.00
2022-12-28T07:04:09.025Z,1.30
2022-12-28T07:06:40.929Z,1.58
2022-12-28T07:09:13.288Z,1.30
2022-12-28T07:11:40.291Z,1.30
2022-12-28T07:14:07.142Z,1.33
2022-12-28T07:19:00.669Z,1.90
2022-12-28T07:21:39.754Z,1.80
2022-12-28T07:24:07.516Z,1.58
2022-12-28T07:26:37.462Z,1.70
2022-12-28T07:29:06.769Z,1.55
2022-12-28T07:31:44.165Z,1.40
2022-12-28T07:34:13.422Z,1.60
2022-12-28T07:36:40.137Z,1.52
2022-12-28T07:39:06.860Z,1.42
2022-12-28T07:41:36.042Z,1.70
2022-12-28T07:44:02.906Z,1.85
2022-12-28T07:46:33.617Z,1.70
2022-12-28T07:49:03.152Z,1.77
2022-12-28T07:51:35.006Z,1.98
2022-12-28T07:54:02.744Z,2.22
2022-12-28T07:59:01.669Z,1.85
2022-12-28T08:01:33.674Z,1.85
2022-12-28T08:04:06.711Z,1.95
2022-12-28T08:06:37.846Z,1.98
2022-12-28T08:09:06.938Z,1.90
2022-12-28T08:11:37.076Z,2.05
2022-12-28T08:14:05.932Z,2.00
2022-12-28T08:16:39.781Z,1.73
2022-12-28T08:19:08.882Z,1.73
2022-12-28T08:21:42.776Z,1.55
2022-12-28T08:24:14.953Z,1.80
2022-12-28T08:26:42.377Z,2.03
2022-12-28T08:29:14.824Z,1.75
2022-12-28T08:31:44.468Z,1.88
2022-12-28T08:34:18.522Z,1.98
2022-12-28T08:36:45.520Z,2.15
2022-12-28T08:39:12.400Z,1.67
2022-12-28T08:41:39.146Z,1.98
2022-12-28T08:44:06.154Z,1.90
2022-12-28T08:46:36.227Z,2.15
2022-12-28T08:49:05.770Z,1.55
2022-12-28T08:51:36.413Z,1.70
2022-12-28T08:54:03.959Z,2.10
2022-12-28T08:56:37.692Z,2.05
2022-12-28T08:59:06.120Z,1.75
2022-12-28T09:01:44.310Z,2.10
2022-12-28T09:04:19.150Z,1.70
2022-12-28T09:06:46.414Z,1.83
2022-12-28T09:09:17.236Z,1.58
2022-12-28T09:11:44.795Z,1.98
2022-12-28T09:14:22.040Z,1.75
2022-12-28T09:16:49.757Z,1.90
2022-12-28T09:19:16.641Z,1.77
2022-12-28T09:21:45.202Z,1.77
2022-12-28T09:24:13.553Z,2.03
2022-12-28T09:26:40.513Z,1.60
2022-12-28T09:29:12.229Z,1.73
2022-12-28T09:31:40.593Z,1.70
2022-12-28T09:36:59.779Z,1.80
2022-12-28T09:39:26.911Z,1.65
2022-12-28T09:42:02.889Z,1.70
2022-12-28T09:45:05.162Z,1.50
2022-12-28T09:47:48.148Z,1.63
2022-12-28T09:50:18.535Z,2.00
2022-12-28T09:53:03.288Z,1.50
2022-12-28T09:55:32.823Z,1.75
2022-12-28T09:58:01.018Z,1.90
2022-12-28T10:00:41.349Z,2.10
2022-12-28T10:03:18.359Z,2.25
2022-12-28T10:05:47.441Z,1.90
2022-12-28T10:08:18.858Z,2.00
2022-12-28T10:10:49.160Z,2.00
2022-12-28T10:16:21.829Z,2.00
2022-12-28T10:18:49.815Z,1.90
2022-12-28T10:21:20.366Z,1.85
2022-12-28T10:26:46.854Z,1.63
2022-12-28T10:29:23.666Z,1.73
2022-12-28T10:32:05.188Z,1.73
2022-12-28T10:34:35.310Z,2.00
2022-12-28T10:37:16.238Z,1.98
2022-12-28T10:39:57.894Z,2.00
2022-12-28T10:42:33.042Z,2.00
2022-12-28T10:45:07.098Z,1.77
2022-12-28T10:47:46.019Z,1.60
2022-12-28T10:50:50.419Z,1.60
2022-12-28T10:53:27.805Z,1.67
2022-12-28T10:56:05.420Z,1.38
2022-12-28T10:58:34.400Z,1.50
2022-12-28T11:01:25.432Z,1.88
2022-12-28T11:03:55.481Z,1.98
2022-12-28T11:06:28.337Z,1.50
2022-12-28T11:09:12.908Z,1.50
2022-12-28T11:11:40.338Z,1.52
2022-12-28T11:14:35.932Z,1.85
2022-12-28T11:17:25.204Z,1.88
2022-12-28T11:19:57.322Z,1.52
2022-12-28T11:22:28.767Z,1.60
2022-12-28T11:24:59.653Z,1.83
2022-12-28T11:27:26.562Z,1.70
2022-12-28T11:29:55.454Z,1.60
2022-12-28T11:32:28.837Z,1.60
2022-12-28T11:34:57.909Z,1.85
2022-12-28T11:37:24.779Z,1.88
2022-12-28T11:39:53.576Z,1.80
2022-12-28T11:42:55.508Z,1.95
2022-12-28T11:45:51.419Z,1.70
2022-12-28T11:48:43.130Z,2.00
2022-12-28T11:51:29.258Z,1.77
2022-12-28T11:54:37.027Z,2.00
2022-12-28T11:57:04.419Z,1.50
2022-12-28T11:59:33.118Z,1.92
2022-12-28T12:02:29.186Z,1.70
2022-12-28T12:04:56.052Z,1.65
2022-12-28T12:07:46.443Z,1.70
2022-12-28T12:10:41.775Z,1.65
2022-12-28T12:13:42.719Z,1.92
2022-12-28T12:16:26.616Z,1.63
2022-12-28T12:18:57.231Z,2.03
2022-12-28T12:21:44.268Z,1.90
2022-12-28T12:24:41.315Z,2.13
2022-12-28T12:27:23.116Z,2.10
2022-12-28T12:29:59.563Z,1.73
2022-12-28T12:32:53.865Z,1.77
2022-12-28T12:35:25.820Z,2.03
2022-12-28T12:38:24.449Z,1.80
2022-12-28T12:41:26.465Z,1.70
2022-12-28T12:44:17.531Z,2.03
2022-12-28T12:47:17.763Z,1.75
2022-12-28T12:50:20.094Z,1.80
2022-12-28T12:53:19.295Z,1.77
2022-12-28T12:56:12.497Z,1.40
2022-12-28T12:59:29.410Z,1.67
2022-12-28T13:02:12.198Z,1.70
2022-12-28T13:04:46.081Z,1.65
2022-12-28T13:07:22.540Z,1.85
2022-12-28T13:09:54.814Z,2.70
2022-12-28T13:12:23.454Z,2.30
2022-12-28T13:15:18.032Z,1.77
2022-12-28T13:21:10.591Z,1.50
2022-12-28T13:23:45.217Z,1.50
2022-12-28T13:26:15.308Z,1.58
2022-12-28T13:28:56.649Z,1.58
2022-12-28T13:31:40.961Z,1.73
2022-12-28T13:34:22.836Z,2.00
2022-12-28T13:37:00.228Z,1.50
2022-12-28T13:39:36.941Z,1.75
2022-12-28T13:42:24.971Z,1.42
2022-12-28T13:44:59.516Z,1.30
2022-12-28T13:47:40.578Z,1.40
2022-12-28T13:50:16.342Z,1.63
2022-12-28T13:52:59.109Z,1.50
2022-12-28T13:55:40.050Z,2.05
2022-12-28T13:58:32.380Z,1.88
2022-12-28T14:01:03.444Z,1.60
2022-12-28T14:03:37.674Z,1.95
2022-12-28T14:06:08.354Z,1.88
2022-12-28T14:08:39.231Z,1.70
2022-12-28T14:11:07.264Z,1.70
2022-12-28T14:13:36.252Z,1.83
2022-12-28T14:16:06.710Z,1.77
2022-12-28T14:18:34.205Z,1.60
2022-12-28T14:21:02.440Z,1.75
2022-12-28T14:23:33.084Z,1.40
2022-12-28T14:26:04.503Z,1.25
2022-12-28T14:28:50.760Z,1.70
2022-12-28T14:31:35.443Z,1.70
2022-12-28T14:34:05.924Z,1.88
2022-12-28T14:36:41.380Z,1.65
2022-12-28T14:39:40.121Z,1.60
2022-12-28T14:42:20.704Z,2.20
2022-12-28T14:44:52.487Z,1.52
2022-12-28T14:47:47.851Z,1.50
2022-12-28T14:50:24.476Z,1.23
2022-12-28T14:53:07.976Z,1.67
2022-12-28T14:55:54.052Z,1.67
2022-12-28T14:58:27.769Z,1.70
2022-12-28T15:00:59.329Z,1.48
2022-12-28T15:03:30.626Z,2.00
2022-12-28T15:05:59.721Z,1.90
2022-12-28T15:08:27.691Z,1.70
2022-12-28T15:10:58.351Z,1.50
2022-12-28T15:13:27.283Z,2.45
2022-12-28T15:16:00.375Z,1.98
2022-12-28T15:18:29.923Z,2.22
2022-12-28T15:20:57.473Z,1.80
2022-12-28T15:23:24.408Z,1.70
2022-12-28T15:25:51.301Z,1.77
2022-12-28T15:28:18.052Z,1.90
2022-12-28T15:30:45.406Z,2.10
2022-12-28T15:33:12.801Z,2.25
2022-12-28T15:35:39.702Z,1.83
2022-12-28T15:38:06.450Z,2.10
2022-12-28T15:40:33.212Z,1.95
2022-12-28T15:42:59.925Z,2.17
2022-12-28T15:45:26.734Z,1.83
2022-12-28T15:47:54.865Z,3.08
2022-12-28T15:50:22.347Z,2.25
2022-12-28T15:52:49.304Z,2.60
2022-12-28T15:55:16.176Z,2.17
2022-12-28T15:57:44.645Z,2.33
2022-12-28T16:00:18.835Z,1.98
2022-12-28T16:02:46.431Z,2.63
2022-12-28T16:05:13.565Z,2.42
2022-12-28T16:07:40.735Z,2.05
2022-12-28T16:10:07.999Z,2.20
2022-12-28T16:12:34.972Z,2.55
2022-12-28T16:15:01.794Z,2.33
2022-12-28T16:17:28.554Z,1.92
2022-12-28T16:19:55.424Z,2.20
2022-12-28T16:22:23.734Z,2.17
2022-12-28T16:24:50.908Z,2.25
2022-12-28T16:27:18.092Z,2.20
2022-12-28T16:29:52.739Z,2.28
2022-12-28T16:32:22.170Z,1.75
2022-12-28T16:34:49.000Z,2.13
2022-12-28T16:37:15.739Z,1.90
2022-12-28T16:39:43.830Z,2.30
2022-12-28T16:42:10.754Z,1.98
2022-12-28T16:44:37.518Z,2.13
2022-12-28T16:47:04.417Z,2.00
2022-12-28T16:49:31.297Z,2.05
2022-12-28T16:51:58.635Z,2.20
2022-12-28T16:54:27.470Z,2.30
2022-12-28T16:56:54.829Z,2.58
2022-12-28T16:59:25.588Z,2.53
2022-12-28T17:01:54.702Z,2.60
2022-12-28T17:04:22.096Z,2.63
2022-12-28T17:06:53.026Z,2.83
2022-12-28T17:09:21.079Z,2.38
2022-12-28T17:11:49.809Z,2.20
2022-12-28T17:14:29.184Z,2.67
2022-12-28T17:17:02.388Z,2.70
2022-12-28T17:19:29.266Z,2.55
2022-12-28T17:21:55.985Z,3.20
2022-12-28T17:24:24.120Z,2.40
2022-12-28T17:26:50.864Z,2.40
2022-12-28T17:29:19.055Z,1.88
2022-12-28T17:31:45.855Z,1.65
2022-12-28T17:34:12.636Z,1.95
2022-12-28T17:36:39.372Z,2.05
2022-12-28T17:39:06.388Z,2.05
2022-12-28T17:41:33.144Z,2.10
2022-12-28T17:44:00.983Z,1.83
2022-12-28T17:46:30.492Z,1.90
2022-12-28T17:48:59.984Z,2.00
2022-12-28T17:51:28.995Z,2.00
2022-12-28T17:53:57.443Z,1.73
2022-12-28T17:56:24.535Z,1.85
2022-12-28T17:58:57.075Z,1.48
2022-12-28T18:01:25.973Z,1.80
2022-12-28T18:03:52.800Z,2.00
2022-12-28T18:06:20.278Z,2.45
2022-12-28T18:08:47.134Z,1.58
2022-12-28T18:11:13.962Z,1.40
2022-12-28T18:13:42.908Z,1.77
2022-12-28T18:16:15.061Z,1.70
2022-12-28T18:18:42.216Z,1.70
2022-12-28T18:21:19.387Z,1.27
2022-12-28T18:23:52.224Z,1.70
2022-12-28T18:26:23.975Z,1.70
2022-12-28T18:28:50.756Z,2.40
2022-12-28T18:31:18.832Z,2.40
2022-12-28T18:33:45.865Z,2.65
2022-12-28T18:36:17.629Z,2.03
2022-12-28T18:38:46.929Z,2.05
2022-12-28T18:41:18.131Z,2.13
2022-12-28T18:43:44.936Z,2.17
2022-12-28T18:46:11.877Z,2.40
2022-12-28T18:48:40.962Z,2.08
2022-12-28T18:51:19.746Z,2.17
2022-12-28T18:53:46.873Z,2.08
2022-12-28T18:56:16.850Z,2.00
2022-12-28T18:58:44.717Z,2.42
2022-12-28T19:01:39.757Z,2.30
2022-12-28T19:04:01.217Z,2.05
2022-12-28T19:06:29.349Z,2.00
2022-12-28T19:09:00.181Z,1.90
2022-12-28T19:11:27.781Z,2.00
2022-12-28T19:13:54.936Z,2.00
2022-12-28T19:16:28.768Z,1.80
2022-12-28T19:18:57.966Z,1.80
2022-12-28T19:21:40.799Z,1.60
2022-12-28T19:24:18.429Z,1.90
2022-12-28T19:26:46.899Z,1.73
2022-12-28T19:29:15.613Z,1.45
2022-12-28T19:31:43.482Z,1.58
2022-12-28T19:34:10.290Z,1.58
2022-12-28T19:36:37.042Z,1.40
2022-12-28T19:39:03.770Z,1.55
2022-12-28T19:41:30.585Z,1.67
2022-12-28T19:43:57.370Z,1.70
2022-12-28T19:46:31.334Z,1.83
2022-12-28T19:49:00.708Z,1.70
2022-12-28T19:51:31.731Z,2.47
2022-12-28T19:54:00.223Z,2.50
2022-12-28T19:56:27.009Z,2.03
2022-12-28T19:58:57.793Z,2.03
2022-12-28T20:01:28.756Z,2.10
2022-12-28T20:03:56.194Z,2.53
2022-12-28T20:06:27.216Z,2.58
2022-12-28T20:09:00.599Z,1.95
2022-12-28T20:11:28.862Z,2.25
2022-12-28T20:13:59.077Z,2.58
2022-12-28T20:16:28.850Z,1.90
2022-12-28T20:18:56.411Z,1.73
2022-12-28T20:21:25.927Z,1.95
2022-12-28T20:23:54.658Z,2.15
2022-12-28T20:26:24.872Z,1.75
2022-12-28T20:28:52.124Z,1.88
2022-12-28T20:31:19.713Z,2.00
2022-12-28T20:33:46.934Z,2.20
2022-12-28T20:36:22.173Z,1.90
2022-12-28T20:38:49.605Z,2.40
2022-12-28T20:41:38.830Z,2.30
2022-12-28T20:44:10.359Z,2.00
2022-12-28T20:46:37.496Z,2.22
2022-12-28T20:49:05.092Z,2.40
2022-12-28T20:51:32.202Z,2.75
2022-12-28T20:53:59.171Z,2.47
2022-12-28T20:56:25.943Z,1.92
2022-12-28T20:58:53.133Z,2.75
2022-12-28T21:01:21.304Z,2.15
2022-12-28T21:03:48.470Z,2.00
2022-12-28T21:06:15.468Z,1.90
2022-12-28T21:08:42.206Z,1.98
2022-12-28T21:11:08.999Z,1.88
2022-12-28T21:13:40.743Z,1.95
2022-12-28T21:16:12.934Z,2.10
2022-12-28T21:18:39.859Z,2.25
2022-12-28T21:21:12.991Z,2.22
2022-12-28T21:23:39.710Z,2.00
2022-12-28T21:26:15.136Z,2.28
2022-12-28T21:28:42.619Z,2.60
2022-12-28T21:31:10.243Z,2.63
2022-12-28T21:33:38.483Z,2.00
2022-12-28T21:36:13.784Z,2.40
2022-12-28T21:38:45.008Z,2.30
2022-12-28T21:41:39.681Z,1.75
2022-12-28T21:44:09.880Z,1.80
2022-12-28T21:46:36.672Z,2.10
2022-12-28T21:49:05.120Z,1.73
2022-12-28T21:51:32.486Z,2.10
2022-12-28T21:54:15.338Z,1.77
2022-12-28T21:56:44.804Z,1.92
2022-12-28T21:59:13.326Z,1.70
2022-12-28T22:02:00.747Z,2.00
2022-12-28T22:04:46.997Z,2.08
2022-12-28T22:07:17.737Z,1.70
2022-12-28T22:10:03.435Z,1.67
2022-12-28T22:12:37.200Z,1.70
2022-12-28T22:21:12.293Z,1.92
2022-12-28T22:23:39.245Z,2.20
2022-12-28T22:26:06.064Z,2.03
2022-12-28T22:28:33.252Z,1.73
2022-12-28T22:31:06.002Z,2.28
2022-12-28T22:33:33.108Z,2.30
2022-12-28T22:36:15.762Z,1.70
2022-12-28T22:38:42.827Z,1.90
2022-12-28T22:41:09.817Z,1.80
2022-12-28T22:43:36.893Z,2.10
2022-12-28T22:46:12.070Z,1.63
2022-12-28T22:48:38.872Z,2.30
2022-12-28T22:51:09.502Z,2.15
2022-12-28T22:53:37.529Z,1.88
2022-12-28T22:56:10.219Z,1.45
2022-12-28T22:58:37.145Z,1.63
2022-12-28T23:01:09.378Z,1.70
2022-12-28T23:03:41.592Z,1.70
2022-12-28T23:06:11.182Z,1.88
2022-12-28T23:08:38.034Z,1.70
2022-12-28T23:11:28.715Z,1.63
2022-12-28T23:13:55.775Z,1.50
2022-12-28T23:16:22.513Z,1.50
2022-12-28T23:19:07.775Z,1.45
2022-12-28T23:21:53.192Z,1.25
2022-12-28T23:24:38.549Z,1.50
2022-12-28T23:27:21.783Z,1.25
2022-12-28T23:29:48.914Z,1.30
2022-12-28T23:32:15.705Z,1.20
2022-12-28T23:34:42.406Z,1.35
2022-12-28T23:37:09.127Z,1.40
2022-12-28T23:39:35.870Z,1.40
2022-12-28T23:42:03.208Z,1.40
2022-12-28T23:44:31.566Z,1.40
2022-12-28T23:46:59.537Z,1.30
2022-12-28T23:49:27.471Z,1.17
2022-12-28T23:51:54.485Z,1.10
2022-12-28T23:54:21.431Z,1.20
2022-12-28T23:56:51.498Z,1.40
2022-12-28T23:59:18.265Z,1.40
